createdAt,value
2022-08-17T00:07:39.071Z,12.43
2022-08-17T00:17:41.268Z,12.57
2022-08-17T00:27:42.832Z,14.37
2022-08-17T00:37:44.406Z,10.75
2022-08-17T00:47:46.880Z,14.70
2022-08-17T00:57:55.179Z,10.40
2022-08-17T01:08:00.027Z,11.50
2022-08-17T01:18:02.540Z,10.60
2022-08-17T01:28:04.419Z,11.55
2022-08-17T01:38:06.798Z,10.77
2022-08-17T01:48:08.440Z,11.97
2022-08-17T01:58:10.130Z,10.80
2022-08-17T02:08:19.832Z,10.93
2022-08-17T02:18:21.817Z,11.82
2022-08-17T02:28:23.416Z,11.57
2022-08-17T02:38:24.985Z,11.40
2022-08-17T02:48:31.206Z,13.37
2022-08-17T02:58:34.499Z,10.60
2022-08-17T03:08:37.408Z,12.35
2022-08-17T03:18:38.962Z,9.27
2022-08-17T03:28:40.471Z,10.90
2022-08-17T03:38:42.072Z,9.97
2022-08-17T03:48:44.423Z,17.23
2022-08-17T03:58:46.443Z,11.43
2022-08-17T04:08:47.964Z,10.50
2022-08-17T04:18:49.471Z,10.97
2022-08-17T04:28:51.812Z,12.13
2022-08-17T04:38:53.340Z,11.27
2022-08-17T04:48:57.034Z,12.35
2022-08-17T04:59:03.056Z,11.00
2022-08-17T05:09:05.195Z,12.53
2022-08-17T05:19:06.745Z,12.33
2022-08-17T05:29:08.270Z,11.40
2022-08-17T05:39:13.429Z,14.52
2022-08-17T05:49:25.095Z,12.07
2022-08-17T06:00:10.046Z,15.43
2022-08-17T06:10:32.940Z,18.77
2022-08-17T06:21:01.603Z,19.13
2022-08-17T06:31:11.825Z,16.75
2022-08-17T06:41:22.271Z,15.93
2022-08-17T06:51:32.552Z,18.90
2022-08-17T07:01:38.344Z,17.77
2022-08-17T07:11:49.042Z,16.23
2022-08-17T07:22:06.992Z,22.30
2022-08-17T07:32:11.029Z,17.43
2022-08-17T07:42:12.652Z,14.87
2022-08-17T07:52:51.496Z,21.80
2022-08-17T08:03:11.231Z,24.40
2022-08-17T08:13:25.332Z,24.15
2022-08-17T08:23:29.576Z,26.63
2022-08-17T08:33:31.106Z,26.53
2022-08-17T08:43:57.532Z,24.90
2022-08-17T08:54:12.222Z,25.43
2022-08-17T09:04:26.615Z,29.40
2022-08-17T09:14:47.121Z,27.90
2022-08-17T09:25:02.248Z,22.40
2022-08-17T09:35:20.863Z,19.13
2022-08-17T09:45:37.840Z,19.10
2022-08-17T09:55:57.785Z,20.95
2022-08-17T10:06:06.953Z,18.60
2022-08-17T10:16:25.518Z,18.40
2022-08-17T10:26:46.275Z,18.07
2022-08-17T10:37:19.284Z,20.93
2022-08-17T10:47:20.802Z,19.02
2022-08-17T10:57:31.470Z,16.70
2022-08-17T11:08:02.792Z,14.43
2022-08-17T11:18:30.199Z,16.43
2022-08-17T11:28:34.841Z,16.07
2022-08-17T11:38:51.927Z,16.98
2022-08-17T11:49:02.717Z,16.50
2022-08-17T11:59:30.205Z,19.70
2022-08-17T12:09:33.949Z,16.30
2022-08-17T12:19:37.214Z,16.13
2022-08-17T12:29:43.577Z,16.15
2022-08-17T12:40:03.406Z,15.33
2022-08-17T12:50:29.532Z,13.60
2022-08-17T13:00:37.708Z,16.87
2022-08-17T13:10:39.389Z,18.17
2022-08-17T13:20:50.556Z,13.07
2022-08-17T13:30:52.275Z,15.20
2022-08-17T13:40:53.916Z,19.00
2022-08-17T13:50:55.473Z,12.53
2022-08-17T14:00:57.255Z,14.80
2022-08-17T14:10:59.406Z,18.48
2022-08-17T14:21:00.949Z,17.43
2022-08-17T14:31:02.514Z,15.20
2022-08-17T14:41:04.876Z,19.30
2022-08-17T14:51:06.918Z,16.57
2022-08-17T15:01:14.362Z,18.33
2022-08-17T15:11:17.080Z,13.27
2022-08-17T15:21:18.857Z,15.00
2022-08-17T15:31:20.385Z,11.93
2022-08-17T15:41:34.185Z,12.73
2022-08-17T15:51:35.986Z,17.40
2022-08-17T16:03:01.687Z,16.00
2022-08-17T16:12:10.389Z,14.47
2022-08-17T16:22:13.058Z,21.83
2022-08-17T16:32:20.346Z,15.83
2022-08-17T16:42:35.799Z,19.73
2022-08-17T16:52:37.673Z,28.90
2022-08-17T17:02:46.655Z,31.40
2022-08-17T17:13:03.095Z,16.40
2022-08-17T17:23:24.370Z,14.23
2022-08-17T17:33:35.607Z,14.30
2022-08-17T17:43:40.342Z,10.27
2022-08-17T17:54:04.642Z,10.37
2022-08-17T18:04:31.574Z,11.87
2022-08-17T18:14:52.004Z,10.70
2022-08-17T18:24:55.081Z,12.18
2022-08-17T18:35:08.828Z,11.77
2022-08-17T18:45:10.340Z,12.73
2022-08-17T18:55:23.244Z,13.40
2022-08-17T19:05:36.421Z,11.30
2022-08-17T19:16:14.424Z,13.55
2022-08-17T19:26:54.479Z,13.73
2022-08-17T19:37:09.783Z,10.40
2022-08-17T19:47:43.204Z,13.77
2022-08-17T19:58:08.250Z,8.50
2022-08-17T20:08:17.779Z,12.30
2022-08-17T20:18:44.044Z,17.20
2022-08-17T20:29:13.872Z,13.53
2022-08-17T20:39:31.791Z,11.90
2022-08-17T20:49:47.365Z,11.77
2022-08-17T20:59:48.848Z,12.45
2022-08-17T21:09:51.078Z,13.17
2022-08-17T21:20:16.851Z,11.03
2022-08-17T21:30:45.063Z,11.87
2022-08-17T21:40:50.707Z,10.57
2022-08-17T21:51:16.290Z,12.68
2022-08-17T22:01:50.614Z,15.60
2022-08-17T22:11:58.381Z,16.93
2022-08-17T22:22:37.432Z,10.70
2022-08-17T22:32:44.429Z,13.73
2022-08-17T22:42:47.409Z,13.82
2022-08-17T22:52:56.468Z,14.60
2022-08-17T23:03:08.439Z,15.47
2022-08-17T23:13:13.191Z,12.83
2022-08-17T23:23:15.051Z,14.43
2022-08-17T23:33:28.061Z,16.30
2022-08-17T23:43:29.681Z,12.37
2022-08-17T23:53:34.305Z,19.27
